sensor_id;sensor_type;location;lat;lon;timestamp;P1;durP1;ratioP1;P2;durP2;ratioP2
15933;SDS011;8066;48.776;11.384;2022-08-01T00:02:19;3.25;;;1.80;;
15933;SDS011;8066;48.776;11.384;2022-08-01T00:04:46;3.30;;;2.00;;
15933;SDS011;8066;48.776;11.384;2022-08-01T00:07:13;3.00;;;1.83;;
15933;SDS011;8066;48.776;11.384;2022-08-01T00:09:40;2.53;;;1.92;;
15933;SDS011;8066;48.776;11.384;2022-08-01T00:12:07;2.63;;;1.70;;
15933;SDS011;8066;48.776;11.384;2022-08-01T00:14:34;5.07;;;2.20;;
15933;SDS011;8066;48.776;11.384;2022-08-01T00:17:01;3.53;;;1.90;;
15933;SDS011;8066;48.776;11.384;2022-08-01T00:19:30;2.97;;;1.80;;
15933;SDS011;8066;48.776;11.384;2022-08-01T00:21:57;2.17;;;1.92;;
15933;SDS011;8066;48.776;11.384;2022-08-01T00:24:24;2.45;;;2.00;;
15933;SDS011;8066;48.776;11.384;2022-08-01T00:26:51;1.70;;;1.60;;
15933;SDS011;8066;48.776;11.384;2022-08-01T00:29:17;1.90;;;1.67;;
15933;SDS011;8066;48.776;11.384;2022-08-01T00:31:44;2.00;;;1.80;;
15933;SDS011;8066;48.776;11.384;2022-08-01T00:34:11;2.42;;;1.80;;
15933;SDS011;8066;48.776;11.384;2022-08-01T00:36:39;2.63;;;1.90;;
15933;SDS011;8066;48.776;11.384;2022-08-01T00:39:06;2.03;;;1.70;;
15933;SDS011;8066;48.776;11.384;2022-08-01T00:41:33;2.03;;;1.85;;
15933;SDS011;8066;48.776;11.384;2022-08-01T00:44:01;3.15;;;1.70;;
15933;SDS011;8066;48.776;11.384;2022-08-01T00:46:30;2.80;;;2.10;;
15933;SDS011;8066;48.776;11.384;2022-08-01T00:48:59;3.15;;;2.00;;
15933;SDS011;8066;48.776;11.384;2022-08-01T00:51:27;3.47;;;1.88;;
15933;SDS011;8066;48.776;11.384;2022-08-01T00:53:56;2.42;;;1.77;;
15933;SDS011;8066;48.776;11.384;2022-08-01T00:56:23;3.58;;;1.90;;
15933;SDS011;8066;48.776;11.384;2022-08-01T00:58:52;6.22;;;2.65;;
15933;SDS011;8066;48.776;11.384;2022-08-01T01:01:21;2.13;;;1.92;;
15933;SDS011;8066;48.776;11.384;2022-08-01T01:03:49;2.38;;;1.90;;
15933;SDS011;8066;48.776;11.384;2022-08-01T01:06:27;1.95;;;1.80;;
15933;SDS011;8066;48.776;11.384;2022-08-01T01:09:12;3.88;;;1.85;;
15933;SDS011;8066;48.776;11.384;2022-08-01T01:11:57;3.00;;;1.80;;
15933;SDS011;8066;48.776;11.384;2022-08-01T01:14:38;1.92;;;1.70;;
15933;SDS011;8066;48.776;11.384;2022-08-01T01:17:17;1.85;;;1.67;;
15933;SDS011;8066;48.776;11.384;2022-08-01T01:19:51;2.30;;;2.10;;
15933;SDS011;8066;48.776;11.384;2022-08-01T01:22:27;2.55;;;1.73;;
15933;SDS011;8066;48.776;11.384;2022-08-01T01:25:09;1.80;;;1.70;;
15933;SDS011;8066;48.776;11.384;2022-08-01T01:28:02;1.88;;;1.77;;
15933;SDS011;8066;48.776;11.384;2022-08-01T01:30:40;3.80;;;1.95;;
15933;SDS011;8066;48.776;11.384;2022-08-01T01:33:11;2.20;;;2.00;;
15933;SDS011;8066;48.776;11.384;2022-08-01T01:35:41;2.22;;;2.00;;
15933;SDS011;8066;48.776;11.384;2022-08-01T01:38:14;2.53;;;2.10;;
15933;SDS011;8066;48.776;11.384;2022-08-01T01:40:46;2.63;;;2.00;;
15933;SDS011;8066;48.776;11.384;2022-08-01T01:43:16;3.55;;;1.77;;
15933;SDS011;8066;48.776;11.384;2022-08-01T01:45:46;2.78;;;1.98;;
15933;SDS011;8066;48.776;11.384;2022-08-01T01:48:15;4.95;;;2.00;;
15933;SDS011;8066;48.776;11.384;2022-08-01T01:50:46;3.05;;;1.77;;
15933;SDS011;8066;48.776;11.384;2022-08-01T01:53:15;2.28;;;1.85;;
15933;SDS011;8066;48.776;11.384;2022-08-01T01:55:46;4.10;;;1.77;;
15933;SDS011;8066;48.776;11.384;2022-08-01T01:58:17;2.83;;;2.20;;
15933;SDS011;8066;48.776;11.384;2022-08-01T02:00:49;4.88;;;2.08;;
15933;SDS011;8066;48.776;11.384;2022-08-01T02:03:21;2.33;;;2.03;;
15933;SDS011;8066;48.776;11.384;2022-08-01T02:05:49;3.17;;;1.85;;
15933;SDS011;8066;48.776;11.384;2022-08-01T02:08:19;3.05;;;2.03;;
15933;SDS011;8066;48.776;11.384;2022-08-01T02:10:49;3.65;;;2.13;;
15933;SDS011;8066;48.776;11.384;2022-08-01T02:13:34;2.20;;;1.83;;
15933;SDS011;8066;48.776;11.384;2022-08-01T02:16:05;2.13;;;1.90;;
15933;SDS011;8066;48.776;11.384;2022-08-01T02:18:36;2.33;;;1.77;;
15933;SDS011;8066;48.776;11.384;2022-08-01T02:21:03;2.80;;;2.13;;
15933;SDS011;8066;48.776;11.384;2022-08-01T02:23:36;2.25;;;1.80;;
15933;SDS011;8066;48.776;11.384;2022-08-01T02:26:07;2.15;;;1.80;;
15933;SDS011;8066;48.776;11.384;2022-08-01T02:28:41;3.50;;;2.20;;
15933;SDS011;8066;48.776;11.384;2022-08-01T02:31:17;2.65;;;2.08;;
15933;SDS011;8066;48.776;11.384;2022-08-01T02:33:50;2.40;;;1.95;;
15933;SDS011;8066;48.776;11.384;2022-08-01T02:36:25;2.38;;;1.88;;
15933;SDS011;8066;48.776;11.384;2022-08-01T02:38:54;2.22;;;2.03;;
15933;SDS011;8066;48.776;11.384;2022-08-01T02:41:23;3.83;;;2.58;;
15933;SDS011;8066;48.776;11.384;2022-08-01T02:43:53;3.38;;;1.90;;
15933;SDS011;8066;48.776;11.384;2022-08-01T02:46:29;2.75;;;1.65;;
15933;SDS011;8066;48.776;11.384;2022-08-01T02:49:02;2.20;;;2.00;;
15933;SDS011;8066;48.776;11.384;2022-08-01T02:51:32;2.47;;;2.08;;
15933;SDS011;8066;48.776;11.384;2022-08-01T02:54:02;2.28;;;1.80;;
15933;SDS011;8066;48.776;11.384;2022-08-01T02:56:33;3.03;;;1.88;;
15933;SDS011;8066;48.776;11.384;2022-08-01T02:59:04;2.50;;;1.90;;
15933;SDS011;8066;48.776;11.384;2022-08-01T03:01:37;2.80;;;2.00;;
15933;SDS011;8066;48.776;11.384;2022-08-01T03:04:05;2.88;;;1.90;;
15933;SDS011;8066;48.776;11.384;2022-08-01T03:06:34;2.15;;;1.90;;
15933;SDS011;8066;48.776;11.384;2022-08-01T03:09:03;2.45;;;1.70;;
15933;SDS011;8066;48.776;11.384;2022-08-01T03:11:33;2.83;;;2.05;;
15933;SDS011;8066;48.776;11.384;2022-08-01T03:14:05;5.30;;;1.90;;
15933;SDS011;8066;48.776;11.384;2022-08-01T03:16:35;2.10;;;1.90;;
15933;SDS011;8066;48.776;11.384;2022-08-01T03:19:08;2.75;;;1.90;;
15933;SDS011;8066;48.776;11.384;2022-08-01T03:21:38;3.42;;;1.70;;
15933;SDS011;8066;48.776;11.384;2022-08-01T03:24:07;1.77;;;1.67;;
15933;SDS011;8066;48.776;11.384;2022-08-01T03:26:36;2.67;;;1.80;;
15933;SDS011;8066;48.776;11.384;2022-08-01T03:29:05;3.05;;;1.65;;
15933;SDS011;8066;48.776;11.384;2022-08-01T03:31:37;2.97;;;1.70;;
15933;SDS011;8066;48.776;11.384;2022-08-01T03:34:09;1.85;;;1.70;;
15933;SDS011;8066;48.776;11.384;2022-08-01T03:36:40;2.08;;;1.67;;
15933;SDS011;8066;48.776;11.384;2022-08-01T03:39:14;2.60;;;1.83;;
15933;SDS011;8066;48.776;11.384;2022-08-01T03:41:46;2.00;;;1.52;;
15933;SDS011;8066;48.776;11.384;2022-08-01T03:44:29;1.88;;;1.65;;
15933;SDS011;8066;48.776;11.384;2022-08-01T03:47:05;2.78;;;1.65;;
15933;SDS011;8066;48.776;11.384;2022-08-01T03:49:35;2.63;;;1.83;;
15933;SDS011;8066;48.776;11.384;2022-08-01T03:52:07;2.22;;;1.55;;
15933;SDS011;8066;48.776;11.384;2022-08-01T03:54:36;1.67;;;1.55;;
15933;SDS011;8066;48.776;11.384;2022-08-01T03:57:08;2.15;;;1.67;;
15933;SDS011;8066;48.776;11.384;2022-08-01T03:59:36;1.98;;;1.75;;
15933;SDS011;8066;48.776;11.384;2022-08-01T04:02:05;1.85;;;1.70;;
15933;SDS011;8066;48.776;11.384;2022-08-01T04:04:33;2.53;;;1.67;;
15933;SDS011;8066;48.776;11.384;2022-08-01T04:07:01;1.63;;;1.50;;
15933;SDS011;8066;48.776;11.384;2022-08-01T04:09:31;1.60;;;1.50;;
15933;SDS011;8066;48.776;11.384;2022-08-01T04:11:58;3.35;;;1.65;;
15933;SDS011;8066;48.776;11.384;2022-08-01T04:14:26;2.67;;;1.83;;
15933;SDS011;8066;48.776;11.384;2022-08-01T04:16:53;2.47;;;1.80;;
15933;SDS011;8066;48.776;11.384;2022-08-01T04:19:21;1.90;;;1.60;;
15933;SDS011;8066;48.776;11.384;2022-08-01T04:21:48;1.70;;;1.55;;
15933;SDS011;8066;48.776;11.384;2022-08-01T04:24:16;1.50;;;1.40;;
15933;SDS011;8066;48.776;11.384;2022-08-01T04:26:46;1.92;;;1.63;;
15933;SDS011;8066;48.776;11.384;2022-08-01T04:29:16;1.52;;;1.42;;
15933;SDS011;8066;48.776;11.384;2022-08-01T04:31:46;1.83;;;1.67;;
15933;SDS011;8066;48.776;11.384;2022-08-01T04:34:16;2.00;;;1.80;;
15933;SDS011;8066;48.776;11.384;2022-08-01T04:36:49;2.28;;;1.60;;
15933;SDS011;8066;48.776;11.384;2022-08-01T04:39:20;1.98;;;1.77;;
15933;SDS011;8066;48.776;11.384;2022-08-01T04:41:52;1.60;;;1.50;;
15933;SDS011;8066;48.776;11.384;2022-08-01T04:44:22;1.95;;;1.55;;
15933;SDS011;8066;48.776;11.384;2022-08-01T04:46:49;1.73;;;1.63;;
15933;SDS011;8066;48.776;11.384;2022-08-01T04:49:19;2.20;;;1.80;;
15933;SDS011;8066;48.776;11.384;2022-08-01T04:51:49;4.13;;;1.77;;
15933;SDS011;8066;48.776;11.384;2022-08-01T04:54:22;2.95;;;1.67;;
15933;SDS011;8066;48.776;11.384;2022-08-01T04:56:50;1.90;;;1.70;;
15933;SDS011;8066;48.776;11.384;2022-08-01T04:59:18;5.22;;;1.95;;
15933;SDS011;8066;48.776;11.384;2022-08-01T05:02:03;2.20;;;2.00;;
15933;SDS011;8066;48.776;11.384;2022-08-01T05:04:31;2.22;;;1.85;;
15933;SDS011;8066;48.776;11.384;2022-08-01T05:06:58;1.85;;;1.75;;
15933;SDS011;8066;48.776;11.384;2022-08-01T05:09:25;1.58;;;1.48;;
15933;SDS011;8066;48.776;11.384;2022-08-01T05:11:53;2.78;;;1.73;;
15933;SDS011;8066;48.776;11.384;2022-08-01T05:14:19;2.35;;;1.70;;
15933;SDS011;8066;48.776;11.384;2022-08-01T05:16:47;3.05;;;1.80;;
15933;SDS011;8066;48.776;11.384;2022-08-01T05:19:13;2.17;;;1.80;;
15933;SDS011;8066;48.776;11.384;2022-08-01T05:21:42;3.25;;;1.80;;
15933;SDS011;8066;48.776;11.384;2022-08-01T05:24:09;1.90;;;1.70;;
15933;SDS011;8066;48.776;11.384;2022-08-01T05:26:37;1.88;;;1.63;;
15933;SDS011;8066;48.776;11.384;2022-08-01T05:29:05;2.97;;;1.70;;
15933;SDS011;8066;48.776;11.384;2022-08-01T05:31:32;2.92;;;1.70;;
15933;SDS011;8066;48.776;11.384;2022-08-01T05:33:59;1.83;;;1.65;;
15933;SDS011;8066;48.776;11.384;2022-08-01T05:36:26;2.05;;;1.48;;
15933;SDS011;8066;48.776;11.384;2022-08-01T05:38:55;1.90;;;1.60;;
15933;SDS011;8066;48.776;11.384;2022-08-01T05:41:22;1.75;;;1.65;;
15933;SDS011;8066;48.776;11.384;2022-08-01T05:43:49;3.63;;;1.52;;
15933;SDS011;8066;48.776;11.384;2022-08-01T05:46:16;1.85;;;1.70;;
15933;SDS011;8066;48.776;11.384;2022-08-01T05:48:43;2.83;;;1.60;;
15933;SDS011;8066;48.776;11.384;2022-08-01T05:51:09;3.38;;;1.80;;
15933;SDS011;8066;48.776;11.384;2022-08-01T05:53:36;1.90;;;1.70;;
15933;SDS011;8066;48.776;11.384;2022-08-01T05:56:05;2.05;;;1.60;;
15933;SDS011;8066;48.776;11.384;2022-08-01T05:58:32;2.47;;;1.63;;
15933;SDS011;8066;48.776;11.384;2022-08-01T06:00:59;1.73;;;1.45;;
15933;SDS011;8066;48.776;11.384;2022-08-01T06:03:26;2.08;;;1.42;;
15933;SDS011;8066;48.776;11.384;2022-08-01T06:05:56;2.20;;;1.40;;
15933;SDS011;8066;48.776;11.384;2022-08-01T06:08:23;1.92;;;1.70;;
15933;SDS011;8066;48.776;11.384;2022-08-01T06:10:50;3.95;;;1.63;;
15933;SDS011;8066;48.776;11.384;2022-08-01T06:13:18;3.22;;;1.52;;
15933;SDS011;8066;48.776;11.384;2022-08-01T06:15:46;1.60;;;1.50;;
15933;SDS011;8066;48.776;11.384;2022-08-01T06:18:13;2.05;;;1.50;;
15933;SDS011;8066;48.776;11.384;2022-08-01T06:20:41;3.70;;;1.95;;
15933;SDS011;8066;48.776;11.384;2022-08-01T06:23:08;2.15;;;1.63;;
15933;SDS011;8066;48.776;11.384;2022-08-01T06:25:35;2.20;;;1.60;;
15933;SDS011;8066;48.776;11.384;2022-08-01T06:28:02;2.63;;;1.70;;
15933;SDS011;8066;48.776;11.384;2022-08-01T06:30:31;2.00;;;1.73;;
15933;SDS011;8066;48.776;11.384;2022-08-01T06:32:58;2.53;;;1.63;;
15933;SDS011;8066;48.776;11.384;2022-08-01T06:35:25;2.30;;;1.33;;
15933;SDS011;8066;48.776;11.384;2022-08-01T06:37:54;2.10;;;1.38;;
15933;SDS011;8066;48.776;11.384;2022-08-01T06:40:21;2.05;;;1.80;;
15933;SDS011;8066;48.776;11.384;2022-08-01T06:42:48;2.42;;;1.67;;
15933;SDS011;8066;48.776;11.384;2022-08-01T06:45:16;2.58;;;1.95;;
15933;SDS011;8066;48.776;11.384;2022-08-01T06:47:44;4.50;;;1.88;;
15933;SDS011;8066;48.776;11.384;2022-08-01T06:50:11;1.85;;;1.67;;
15933;SDS011;8066;48.776;11.384;2022-08-01T06:52:39;3.50;;;1.98;;
15933;SDS011;8066;48.776;11.384;2022-08-01T06:55:07;3.17;;;1.75;;
15933;SDS011;8066;48.776;11.384;2022-08-01T06:57:35;1.80;;;1.65;;
15933;SDS011;8066;48.776;11.384;2022-08-01T07:00:11;1.70;;;1.48;;
15933;SDS011;8066;48.776;11.384;2022-08-01T07:02:39;1.67;;;1.50;;
15933;SDS011;8066;48.776;11.384;2022-08-01T07:05:08;2.90;;;1.90;;
15933;SDS011;8066;48.776;11.384;2022-08-01T07:07:35;1.83;;;1.67;;
15933;SDS011;8066;48.776;11.384;2022-08-01T07:10:02;1.67;;;1.58;;
15933;SDS011;8066;48.776;11.384;2022-08-01T07:12:30;2.13;;;1.77;;
15933;SDS011;8066;48.776;11.384;2022-08-01T07:14:58;6.85;;;1.80;;
15933;SDS011;8066;48.776;11.384;2022-08-01T07:17:25;1.92;;;1.55;;
15933;SDS011;8066;48.776;11.384;2022-08-01T07:19:52;2.15;;;1.67;;
15933;SDS011;8066;48.776;11.384;2022-08-01T07:22:20;1.70;;;1.60;;
15933;SDS011;8066;48.776;11.384;2022-08-01T07:24:47;2.30;;;1.60;;
15933;SDS011;8066;48.776;11.384;2022-08-01T07:27:14;2.65;;;2.33;;
15933;SDS011;8066;48.776;11.384;2022-08-01T07:29:41;2.28;;;2.08;;
15933;SDS011;8066;48.776;11.384;2022-08-01T07:32:08;2.72;;;1.60;;
15933;SDS011;8066;48.776;11.384;2022-08-01T07:34:35;1.90;;;1.80;;
15933;SDS011;8066;48.776;11.384;2022-08-01T07:37:02;2.95;;;1.80;;
15933;SDS011;8066;48.776;11.384;2022-08-01T07:39:30;1.70;;;1.60;;
15933;SDS011;8066;48.776;11.384;2022-08-01T07:41:57;2.33;;;1.80;;
15933;SDS011;8066;48.776;11.384;2022-08-01T07:44:24;2.28;;;1.70;;
15933;SDS011;8066;48.776;11.384;2022-08-01T07:46:51;2.80;;;1.95;;
15933;SDS011;8066;48.776;11.384;2022-08-01T07:49:18;1.98;;;1.77;;
15933;SDS011;8066;48.776;11.384;2022-08-01T07:51:46;2.03;;;1.92;;
15933;SDS011;8066;48.776;11.384;2022-08-01T07:54:14;2.22;;;2.03;;
15933;SDS011;8066;48.776;11.384;2022-08-01T07:56:45;2.25;;;2.03;;
15933;SDS011;8066;48.776;11.384;2022-08-01T07:59:12;2.42;;;2.20;;
15933;SDS011;8066;48.776;11.384;2022-08-01T08:01:38;2.95;;;2.40;;
15933;SDS011;8066;48.776;11.384;2022-08-01T08:04:06;2.50;;;2.30;;
15933;SDS011;8066;48.776;11.384;2022-08-01T08:06:33;2.50;;;2.30;;
15933;SDS011;8066;48.776;11.384;2022-08-01T08:09:00;2.65;;;2.45;;
15933;SDS011;8066;48.776;11.384;2022-08-01T08:11:27;2.60;;;2.40;;
15933;SDS011;8066;48.776;11.384;2022-08-01T08:13:55;3.05;;;2.80;;
15933;SDS011;8066;48.776;11.384;2022-08-01T08:16:22;3.30;;;2.80;;
15933;SDS011;8066;48.776;11.384;2022-08-01T08:18:49;2.95;;;2.70;;
15933;SDS011;8066;48.776;11.384;2022-08-01T08:21:16;2.70;;;2.50;;
15933;SDS011;8066;48.776;11.384;2022-08-01T08:23:43;3.03;;;2.83;;
15933;SDS011;8066;48.776;11.384;2022-08-01T08:26:27;2.80;;;2.70;;
15933;SDS011;8066;48.776;11.384;2022-08-01T08:28:55;3.20;;;3.00;;
15933;SDS011;8066;48.776;11.384;2022-08-01T08:31:22;4.18;;;3.40;;
15933;SDS011;8066;48.776;11.384;2022-08-01T08:33:49;3.67;;;3.38;;
15933;SDS011;8066;48.776;11.384;2022-08-01T08:36:16;4.18;;;3.60;;
15933;SDS011;8066;48.776;11.384;2022-08-01T08:38:43;4.00;;;3.80;;
15933;SDS011;8066;48.776;11.384;2022-08-01T08:41:10;4.72;;;4.25;;
15933;SDS011;8066;48.776;11.384;2022-08-01T08:43:38;4.20;;;4.00;;
15933;SDS011;8066;48.776;11.384;2022-08-01T08:46:06;4.80;;;4.50;;
15933;SDS011;8066;48.776;11.384;2022-08-01T08:48:37;4.90;;;4.60;;
15933;SDS011;8066;48.776;11.384;2022-08-01T08:51:07;4.50;;;4.20;;
15933;SDS011;8066;48.776;11.384;2022-08-01T08:53:37;3.83;;;3.53;;
15933;SDS011;8066;48.776;11.384;2022-08-01T08:56:08;3.05;;;2.85;;
15933;SDS011;8066;48.776;11.384;2022-08-01T08:58:40;4.07;;;2.72;;
15933;SDS011;8066;48.776;11.384;2022-08-01T09:01:12;2.50;;;2.30;;
15933;SDS011;8066;48.776;11.384;2022-08-01T09:03:39;2.60;;;2.40;;
15933;SDS011;8066;48.776;11.384;2022-08-01T09:06:06;2.60;;;2.40;;
15933;SDS011;8066;48.776;11.384;2022-08-01T09:08:33;2.47;;;2.28;;
15933;SDS011;8066;48.776;11.384;2022-08-01T09:11:00;2.45;;;2.20;;
15933;SDS011;8066;48.776;11.384;2022-08-01T09:13:28;2.25;;;2.05;;
15933;SDS011;8066;48.776;11.384;2022-08-01T09:15:56;2.70;;;1.83;;
15933;SDS011;8066;48.776;11.384;2022-08-01T09:18:29;3.40;;;1.90;;
15933;SDS011;8066;48.776;11.384;2022-08-01T09:21:12;3.85;;;1.77;;
15933;SDS011;8066;48.776;11.384;2022-08-01T09:23:43;2.25;;;1.70;;
15933;SDS011;8066;48.776;11.384;2022-08-01T09:26:13;2.63;;;2.10;;
15933;SDS011;8066;48.776;11.384;2022-08-01T09:28:42;2.00;;;1.75;;
15933;SDS011;8066;48.776;11.384;2022-08-01T09:31:11;1.95;;;1.80;;
15933;SDS011;8066;48.776;11.384;2022-08-01T09:33:50;1.75;;;1.65;;
15933;SDS011;8066;48.776;11.384;2022-08-01T09:36:22;1.58;;;1.48;;
15933;SDS011;8066;48.776;11.384;2022-08-01T09:38:51;1.77;;;1.45;;
15933;SDS011;8066;48.776;11.384;2022-08-01T09:41:30;1.30;;;1.20;;
15933;SDS011;8066;48.776;11.384;2022-08-01T09:43:57;2.20;;;1.13;;
15933;SDS011;8066;48.776;11.384;2022-08-01T09:46:25;1.08;;;1.00;;
15933;SDS011;8066;48.776;11.384;2022-08-01T09:48:57;1.20;;;1.10;;
15933;SDS011;8066;48.776;11.384;2022-08-01T09:51:28;1.10;;;1.10;;
15933;SDS011;8066;48.776;11.384;2022-08-01T09:53:57;1.20;;;1.00;;
15933;SDS011;8066;48.776;11.384;2022-08-01T09:56:25;1.88;;;1.30;;
15933;SDS011;8066;48.776;11.384;2022-08-01T09:58:53;1.30;;;1.20;;
15933;SDS011;8066;48.776;11.384;2022-08-01T10:01:22;2.65;;;1.15;;
15933;SDS011;8066;48.776;11.384;2022-08-01T10:04:07;1.20;;;1.20;;
15933;SDS011;8066;48.776;11.384;2022-08-01T10:06:37;1.20;;;1.10;;
15933;SDS011;8066;48.776;11.384;2022-08-01T10:09:05;1.67;;;1.23;;
15933;SDS011;8066;48.776;11.384;2022-08-01T10:11:32;1.42;;;1.33;;
15933;SDS011;8066;48.776;11.384;2022-08-01T10:14:04;2.08;;;1.33;;
15933;SDS011;8066;48.776;11.384;2022-08-01T10:16:32;1.30;;;1.30;;
15933;SDS011;8066;48.776;11.384;2022-08-01T10:19:02;2.90;;;1.50;;
15933;SDS011;8066;48.776;11.384;2022-08-01T10:21:33;1.65;;;1.30;;
15933;SDS011;8066;48.776;11.384;2022-08-01T10:24:03;2.50;;;1.42;;
15933;SDS011;8066;48.776;11.384;2022-08-01T10:26:33;1.15;;;1.15;;
15933;SDS011;8066;48.776;11.384;2022-08-01T10:29:02;1.45;;;1.38;;
15933;SDS011;8066;48.776;11.384;2022-08-01T10:31:31;1.50;;;1.40;;
15933;SDS011;8066;48.776;11.384;2022-08-01T10:33:58;1.40;;;1.30;;
15933;SDS011;8066;48.776;11.384;2022-08-01T10:36:26;1.58;;;1.45;;
15933;SDS011;8066;48.776;11.384;2022-08-01T10:38:57;1.40;;;1.30;;
15933;SDS011;8066;48.776;11.384;2022-08-01T10:41:24;1.17;;;1.17;;
15933;SDS011;8066;48.776;11.384;2022-08-01T10:43:54;1.33;;;1.33;;
15933;SDS011;8066;48.776;11.384;2022-08-01T10:46:22;1.90;;;1.42;;
15933;SDS011;8066;48.776;11.384;2022-08-01T10:48:51;1.40;;;1.30;;
15933;SDS011;8066;48.776;11.384;2022-08-01T10:51:26;1.40;;;1.30;;
15933;SDS011;8066;48.776;11.384;2022-08-01T10:53:54;1.25;;;1.20;;
15933;SDS011;8066;48.776;11.384;2022-08-01T10:56:26;2.10;;;1.40;;
15933;SDS011;8066;48.776;11.384;2022-08-01T10:59:05;1.20;;;1.20;;
15933;SDS011;8066;48.776;11.384;2022-08-01T11:01:32;2.58;;;1.40;;
15933;SDS011;8066;48.776;11.384;2022-08-01T11:04:04;1.33;;;1.23;;
15933;SDS011;8066;48.776;11.384;2022-08-01T11:06:40;1.48;;;1.38;;
15933;SDS011;8066;48.776;11.384;2022-08-01T11:09:22;1.35;;;1.25;;
15933;SDS011;8066;48.776;11.384;2022-08-01T11:11:59;1.55;;;1.45;;
15933;SDS011;8066;48.776;11.384;2022-08-01T11:14:30;1.25;;;1.25;;
15933;SDS011;8066;48.776;11.384;2022-08-01T11:20:06;1.75;;;1.30;;
15933;SDS011;8066;48.776;11.384;2022-08-01T11:31:43;1.30;;;1.20;;
15933;SDS011;8066;48.776;11.384;2022-08-01T11:34:11;1.50;;;1.40;;
15933;SDS011;8066;48.776;11.384;2022-08-01T11:36:38;1.27;;;1.20;;
15933;SDS011;8066;48.776;11.384;2022-08-01T11:39:12;1.40;;;1.30;;
15933;SDS011;8066;48.776;11.384;2022-08-01T11:41:43;1.08;;;1.08;;
15933;SDS011;8066;48.776;11.384;2022-08-01T11:44:14;1.35;;;1.27;;
15933;SDS011;8066;48.776;11.384;2022-08-01T11:46:54;2.22;;;1.10;;
15933;SDS011;8066;48.776;11.384;2022-08-01T11:49:32;1.30;;;1.10;;
15933;SDS011;8066;48.776;11.384;2022-08-01T11:52:23;1.27;;;1.17;;
15933;SDS011;8066;48.776;11.384;2022-08-01T11:54:53;1.23;;;1.23;;
15933;SDS011;8066;48.776;11.384;2022-08-01T11:57:25;1.40;;;1.20;;
15933;SDS011;8066;48.776;11.384;2022-08-01T11:59:56;1.35;;;1.23;;
15933;SDS011;8066;48.776;11.384;2022-08-01T12:02:25;2.75;;;1.35;;
15933;SDS011;8066;48.776;11.384;2022-08-01T12:04:54;1.30;;;1.20;;
15933;SDS011;8066;48.776;11.384;2022-08-01T12:07:24;1.98;;;1.20;;
15933;SDS011;8066;48.776;11.384;2022-08-01T12:09:58;1.50;;;1.30;;
15933;SDS011;8066;48.776;11.384;2022-08-01T12:12:30;1.42;;;1.30;;
15933;SDS011;8066;48.776;11.384;2022-08-01T12:14:59;1.90;;;1.20;;
15933;SDS011;8066;48.776;11.384;2022-08-01T12:17:30;1.40;;;1.30;;
15933;SDS011;8066;48.776;11.384;2022-08-01T12:19:59;1.10;;;1.10;;
15933;SDS011;8066;48.776;11.384;2022-08-01T12:22:27;1.38;;;1.30;;
15933;SDS011;8066;48.776;11.384;2022-08-01T12:24:54;1.60;;;1.50;;
15933;SDS011;8066;48.776;11.384;2022-08-01T12:27:26;1.60;;;1.33;;
15933;SDS011;8066;48.776;11.384;2022-08-01T12:29:56;2.17;;;1.33;;
15933;SDS011;8066;48.776;11.384;2022-08-01T12:32:25;1.33;;;1.30;;
15933;SDS011;8066;48.776;11.384;2022-08-01T12:34:56;1.30;;;1.20;;
15933;SDS011;8066;48.776;11.384;2022-08-01T12:37:27;3.90;;;1.60;;
15933;SDS011;8066;48.776;11.384;2022-08-01T12:39:55;1.33;;;1.23;;
15933;SDS011;8066;48.776;11.384;2022-08-01T12:42:24;1.45;;;1.35;;
15933;SDS011;8066;48.776;11.384;2022-08-01T12:44:51;2.08;;;1.20;;
15933;SDS011;8066;48.776;11.384;2022-08-01T12:47:20;1.40;;;1.30;;
15933;SDS011;8066;48.776;11.384;2022-08-01T12:49:49;1.33;;;1.30;;
15933;SDS011;8066;48.776;11.384;2022-08-01T12:52:16;1.50;;;1.40;;
15933;SDS011;8066;48.776;11.384;2022-08-01T12:54:59;2.92;;;1.58;;
15933;SDS011;8066;48.776;11.384;2022-08-01T12:57:34;1.58;;;1.48;;
15933;SDS011;8066;48.776;11.384;2022-08-01T13:00:16;1.63;;;1.50;;
15933;SDS011;8066;48.776;11.384;2022-08-01T13:02:49;1.60;;;1.50;;
15933;SDS011;8066;48.776;11.384;2022-08-01T13:05:28;1.67;;;1.50;;
15933;SDS011;8066;48.776;11.384;2022-08-01T13:08:09;2.70;;;1.55;;
15933;SDS011;8066;48.776;11.384;2022-08-01T13:10:37;1.70;;;1.60;;
15933;SDS011;8066;48.776;11.384;2022-08-01T13:13:04;1.65;;;1.38;;
15933;SDS011;8066;48.776;11.384;2022-08-01T13:15:33;2.85;;;1.80;;
15933;SDS011;8066;48.776;11.384;2022-08-01T13:18:22;1.80;;;1.70;;
15933;SDS011;8066;48.776;11.384;2022-08-01T13:21:06;1.70;;;1.60;;
15933;SDS011;8066;48.776;11.384;2022-08-01T13:23:35;1.60;;;1.50;;
15933;SDS011;8066;48.776;11.384;2022-08-01T13:26:02;3.15;;;1.50;;
15933;SDS011;8066;48.776;11.384;2022-08-01T13:28:30;1.60;;;1.50;;
15933;SDS011;8066;48.776;11.384;2022-08-01T13:30:58;2.50;;;2.30;;
15933;SDS011;8066;48.776;11.384;2022-08-01T13:33:42;3.78;;;1.98;;
15933;SDS011;8066;48.776;11.384;2022-08-01T13:36:11;2.65;;;1.70;;
15933;SDS011;8066;48.776;11.384;2022-08-01T13:38:39;2.50;;;1.50;;
15933;SDS011;8066;48.776;11.384;2022-08-01T13:41:24;2.72;;;1.45;;
15933;SDS011;8066;48.776;11.384;2022-08-01T13:43:51;1.85;;;1.42;;
15933;SDS011;8066;48.776;11.384;2022-08-01T13:46:19;1.70;;;1.60;;
15933;SDS011;8066;48.776;11.384;2022-08-01T13:48:48;1.45;;;1.30;;
15933;SDS011;8066;48.776;11.384;2022-08-01T13:51:15;1.48;;;1.38;;
15933;SDS011;8066;48.776;11.384;2022-08-01T13:53:41;1.92;;;1.35;;
15933;SDS011;8066;48.776;11.384;2022-08-01T13:56:08;1.73;;;1.38;;
15933;SDS011;8066;48.776;11.384;2022-08-01T13:58:35;1.60;;;1.30;;
15933;SDS011;8066;48.776;11.384;2022-08-01T14:01:02;1.75;;;1.40;;
15933;SDS011;8066;48.776;11.384;2022-08-01T14:03:37;3.05;;;1.50;;
15933;SDS011;8066;48.776;11.384;2022-08-01T14:06:04;1.45;;;1.30;;
15933;SDS011;8066;48.776;11.384;2022-08-01T14:08:31;2.22;;;1.60;;
15933;SDS011;8066;48.776;11.384;2022-08-01T14:10:58;1.60;;;1.50;;
15933;SDS011;8066;48.776;11.384;2022-08-01T14:13:25;1.50;;;1.40;;
15933;SDS011;8066;48.776;11.384;2022-08-01T14:15:53;2.35;;;1.30;;
15933;SDS011;8066;48.776;11.384;2022-08-01T14:18:20;1.35;;;1.20;;
15933;SDS011;8066;48.776;11.384;2022-08-01T14:20:48;2.00;;;1.40;;
15933;SDS011;8066;48.776;11.384;2022-08-01T14:23:15;1.83;;;1.40;;
15933;SDS011;8066;48.776;11.384;2022-08-01T14:25:42;1.52;;;1.10;;
15933;SDS011;8066;48.776;11.384;2022-08-01T14:28:09;1.67;;;1.25;;
15933;SDS011;8066;48.776;11.384;2022-08-01T14:30:36;1.20;;;1.20;;
15933;SDS011;8066;48.776;11.384;2022-08-01T14:33:03;1.20;;;1.10;;
15933;SDS011;8066;48.776;11.384;2022-08-01T14:35:30;2.38;;;1.40;;
15933;SDS011;8066;48.776;11.384;2022-08-01T14:37:59;1.50;;;1.40;;
15933;SDS011;8066;48.776;11.384;2022-08-01T14:40:26;1.25;;;1.20;;
15933;SDS011;8066;48.776;11.384;2022-08-01T14:42:53;1.52;;;1.27;;
15933;SDS011;8066;48.776;11.384;2022-08-01T14:45:20;1.90;;;1.35;;
15933;SDS011;8066;48.776;11.384;2022-08-01T14:47:47;1.98;;;1.30;;
15933;SDS011;8066;48.776;11.384;2022-08-01T14:50:15;1.73;;;1.25;;
15933;SDS011;8066;48.776;11.384;2022-08-01T14:52:42;1.10;;;1.10;;
15933;SDS011;8066;48.776;11.384;2022-08-01T14:55:11;1.10;;;1.10;;
15933;SDS011;8066;48.776;11.384;2022-08-01T14:57:39;1.67;;;1.25;;
15933;SDS011;8066;48.776;11.384;2022-08-01T15:00:07;1.35;;;1.25;;
15933;SDS011;8066;48.776;11.384;2022-08-01T15:02:38;1.75;;;1.00;;
15933;SDS011;8066;48.776;11.384;2022-08-01T15:05:06;1.67;;;0.80;;
15933;SDS011;8066;48.776;11.384;2022-08-01T15:07:34;1.20;;;1.10;;
15933;SDS011;8066;48.776;11.384;2022-08-01T15:10:02;1.63;;;1.25;;
15933;SDS011;8066;48.776;11.384;2022-08-01T15:12:31;1.63;;;1.40;;
15933;SDS011;8066;48.776;11.384;2022-08-01T15:14:58;2.65;;;1.20;;
15933;SDS011;8066;48.776;11.384;2022-08-01T15:17:26;2.30;;;1.02;;